Wetterstation Vordersexau
Wetterdaten: Woche 15.09.14 - 21.09.14 (KW38)
Datum Zeit Temp. A. Feuchte A. Luftdruck Regen Wind Richtung Taupunkt Windchill Windben
15.09.2014 00:00 12,2 C 85 % 986,0 hPa 0,0 l/m 0,0 km/h N-NO 9,8 C 12,2 C 0,0 km/h
15.09.2014 01:00 11,2 C 86 % 985,8 hPa 0,0 l/m 0,0 km/h SO 8,9 C 11,2 C 0,0 km/h
15.09.2014 02:00 10,9 C 86 % 985,9 hPa 0,0 l/m 1,8 km/h O-SO 8,7 C 10,9 C 1,8 km/h
15.09.2014 03:00 10,3 C 85 % 985,9 hPa 0,0 l/m 0,0 km/h O-NO 7,9 C 10,3 C 0,0 km/h
15.09.2014 04:00 10,9 C 85 % 986,2 hPa 0,0 l/m 0,0 km/h O-NO 8,5 C 10,9 C 0,0 km/h
15.09.2014 05:00 12,2 C 84 % 986,3 hPa 0,0 l/m 0,0 km/h O-NO 9,6 C 12,2 C 0,0 km/h
15.09.2014 06:00 11,0 C 84 % 986,1 hPa 0,0 l/m 0,0 km/h NO 8,4 C 11,0 C 0,0 km/h
15.09.2014 07:00 11,1 C 84 % 986,4 hPa 0,0 l/m 0,0 km/h N 8,5 C 11,1 C 0,0 km/h
15.09.2014 08:00 12,5 C 82 % 986,3 hPa 0,0 l/m 0,0 km/h S-SO 9,5 C 12,5 C 0,0 km/h
15.09.2014 09:00 14,8 C 83 % 986,8 hPa 0,0 l/m 0,0 km/h W-NW 11,9 C 14,8 C 0,0 km/h
15.09.2014 10:00 16,4 C 85 % 986,8 hPa 0,0 l/m 0,0 km/h W-NW 13,9 C 16,4 C 0,0 km/h
15.09.2014 11:00 22,3 C 73 % 986,5 hPa 0,0 l/m 0,0 km/h N 17,2 C 22,3 C 0,0 km/h
15.09.2014 12:00 26,1 C 59 % 985,9 hPa 0,0 l/m 6,5 km/h W-SW 17,4 C 26,1 C 3,6 km/h
15.09.2014 13:00 25,9 C 57 % 985,4 hPa 0,0 l/m 3,9 km/h W-NW 16,7 C 25,9 C 2,2 km/h
15.09.2014 14:00 26,9 C 56 % 985,1 hPa 0,0 l/m 0,0 km/h W 17,4 C 26,9 C 0,0 km/h
15.09.2014 15:00 26,6 C 53 % 984,6 hPa 0,0 l/m 0,0 km/h W-SW 16,2 C 26,6 C 0,0 km/h
15.09.2014 16:00 31,1 C 45 % 984,3 hPa 0,0 l/m 0,0 km/h N-NW 17,7 C 31,1 C 0,0 km/h
15.09.2014 17:00 31,9 C 42 % 984,2 hPa 0,0 l/m 0,0 km/h N 17,4 C 31,9 C 0,0 km/h
15.09.2014 18:00 28,7 C 47 % 984,2 hPa 0,0 l/m 0,0 km/h N-NO 16,3 C 28,7 C 0,0 km/h
15.09.2014 19:00 18,7 C 69 % 984,4 hPa 0,0 l/m 0,0 km/h N-NO 12,9 C 18,7 C 0,0 km/h
15.09.2014 20:00 15,9 C 80 % 984,8 hPa 0,0 l/m 0,0 km/h N-NO 12,5 C 15,9 C 0,0 km/h
15.09.2014 21:00 14,6 C 83 % 985,5 hPa 0,0 l/m 0,0 km/h O-SO 11,7 C 14,6 C 0,0 km/h
15.09.2014 22:00 14,6 C 85 % 985,4 hPa 0,0 l/m 0,0 km/h O-SO 12,1 C 14,6 C 0,0 km/h
15.09.2014 23:00 13,8 C 85 % 985,7 hPa 0,0 l/m 0,0 km/h O-SO 11,3 C 13,8 C 0,0 km/h
16.09.2014 00:00 13,1 C 85 % 985,6 hPa 0,0 l/m 0,0 km/h O 10,6 C 13,1 C 0,0 km/h
16.09.2014 01:00 12,5 C 86 % 985,5 hPa 0,0 l/m 0,0 km/h O 10,2 C 12,5 C 0,0 km/h
16.09.2014 02:00 12,2 C 85 % 985,4 hPa 0,0 l/m 0,0 km/h O-NO 9,8 C 12,2 C 0,0 km/h
16.09.2014 03:00 11,9 C 85 % 985,4 hPa 0,0 l/m 0,0 km/h NO 9,5 C 11,9 C 0,0 km/h
16.09.2014 04:00 11,6 C 85 % 985,5 hPa 0,0 l/m 0,0 km/h O-NO 9,2 C 11,6 C 0,0 km/h
16.09.2014 05:00 11,3 C 85 % 985,7 hPa 0,0 l/m 0,0 km/h O-NO 8,9 C 11,3 C 0,0 km/h
16.09.2014 06:00 11,6 C 83 % 985,5 hPa 0,0 l/m 0,0 km/h NO 8,8 C 11,6 C 0,0 km/h
16.09.2014 07:00 12,2 C 83 % 985,7 hPa 0,0 l/m 0,0 km/h NO 9,4 C 12,2 C 0,0 km/h
16.09.2014 08:00 15,1 C 79 % 986,1 hPa 0,0 l/m 0,0 km/h W 11,5 C 15,1 C 0,0 km/h
16.09.2014 09:00 20,9 C 80 % 986,1 hPa 0,0 l/m 0,0 km/h W 17,3 C 20,9 C 0,0 km/h
16.09.2014 10:00 24,9 C 67 % 986,2 hPa 0,0 l/m 0,0 km/h S-SW 18,3 C 24,9 C 0,0 km/h
16.09.2014 11:00 28,1 C 59 % 985,9 hPa 0,0 l/m 0,0 km/h W 19,3 C 28,1 C 0,0 km/h
16.09.2014 12:00 28,9 C 54 % 985,3 hPa 0,0 l/m 0,0 km/h SW 18,6 C 28,9 C 0,0 km/h
16.09.2014 13:00 28,2 C 54 % 984,7 hPa 0,0 l/m 2,6 km/h SW 18,0 C 28,2 C 1,4 km/h
16.09.2014 14:00 29,5 C 50 % 984,3 hPa 0,0 l/m 0,0 km/h S-SW 18,0 C 29,5 C 0,0 km/h
16.09.2014 15:00 31,4 C 44 % 984,1 hPa 0,0 l/m 0,0 km/h N 17,6 C 31,4 C 0,0 km/h
16.09.2014 16:00 34,4 C 38 % 983,7 hPa 0,0 l/m 0,0 km/h W 18,0 C 34,4 C 0,0 km/h
16.09.2014 17:00 32,0 C 42 % 983,6 hPa 0,0 l/m 0,0 km/h N-NO 17,4 C 32,0 C 0,0 km/h
16.09.2014 18:00 28,9 C 48 % 983,5 hPa 0,0 l/m 0,0 km/h O-SO 16,8 C 28,9 C 0,0 km/h
16.09.2014 19:00 19,8 C 68 % 983,4 hPa 0,0 l/m 0,0 km/h O-SO 13,7 C 19,8 C 0,0 km/h
16.09.2014 20:00 16,9 C 78 % 983,6 hPa 0,0 l/m 0,0 km/h O-SO 13,0 C 16,9 C 0,0 km/h
16.09.2014 21:00 15,9 C 83 % 983,8 hPa 0,0 l/m 0,0 km/h O 13,0 C 15,9 C 0,0 km/h
16.09.2014 22:00 15,1 C 84 % 983,9 hPa 0,0 l/m 0,0 km/h O-SO 12,4 C 15,1 C 0,0 km/h
16.09.2014 23:00 14,3 C 85 % 983,7 hPa 0,0 l/m 0,0 km/h O-NO 11,8 C 14,3 C 0,0 km/h
17.09.2014 00:00 13,9 C 85 % 983,2 hPa 0,0 l/m 0,0 km/h O-NO 11,4 C 13,9 C 0,0 km/h
17.09.2014 01:00 13,2 C 85 % 983,4 hPa 0,0 l/m 0,0 km/h O-NO 10,7 C 13,2 C 0,0 km/h
17.09.2014 02:00 12,7 C 85 % 983,6 hPa 0,0 l/m 0,0 km/h NO 10,2 C 12,7 C 0,0 km/h
17.09.2014 03:00 12,0 C 85 % 983,5 hPa 0,0 l/m 0,0 km/h O-NO 9,6 C 12,0 C 0,0 km/h
17.09.2014 04:00 11,6 C 85 % 983,8 hPa 0,0 l/m 0,0 km/h NO 9,2 C 11,6 C 0,0 km/h
17.09.2014 05:00 11,8 C 84 % 983,7 hPa 0,0 l/m 0,0 km/h O-NO 9,2 C 11,8 C 0,0 km/h
17.09.2014 06:00 11,6 C 84 % 983,2 hPa 0,0 l/m 0,0 km/h NO 9,0 C 11,6 C 0,0 km/h
17.09.2014 07:00 11,6 C 84 % 983,4 hPa 0,0 l/m 0,0 km/h N-NW 9,0 C 11,6 C 0,0 km/h
17.09.2014 08:00 14,1 C 80 % 983,5 hPa 0,0 l/m 0,0 km/h NW 10,7 C 14,1 C 0,0 km/h
17.09.2014 09:00 21,0 C 79 % 983,3 hPa 0,0 l/m 0,0 km/h W-NW 17,2 C 21,0 C 0,0 km/h
17.09.2014 10:00 24,1 C 65 % 983,3 hPa 0,0 l/m 0,0 km/h W-NW 17,1 C 24,1 C 0,0 km/h
17.09.2014 11:00 26,6 C 58 % 983,3 hPa 0,0 l/m 0,0 km/h N 17,6 C 26,6 C 0,0 km/h
17.09.2014 12:00 27,6 C 56 % 982,4 hPa 0,0 l/m 0,0 km/h N-NO 18,0 C 27,6 C 0,0 km/h
17.09.2014 13:00 28,1 C 55 % 981,9 hPa 0,0 l/m 13,6 km/h N-NO 18,2 C 27,2 C 7,6 km/h
17.09.2014 14:00 29,1 C 53 % 981,5 hPa 0,0 l/m 0,0 km/h W-NW 18,5 C 29,1 C 0,0 km/h
17.09.2014 15:00 31,0 C 50 % 981,1 hPa 0,0 l/m 7,8 km/h W-NW 19,3 C 30,9 C 4,3 km/h
17.09.2014 16:00 27,8 C 58 % 981,1 hPa 0,0 l/m 3,2 km/h W-SW 18,8 C 27,8 C 1,8 km/h
17.09.2014 17:00 25,1 C 63 % 981,2 hPa 0,0 l/m 0,0 km/h N-NO 17,5 C 25,1 C 0,0 km/h
17.09.2014 18:00 22,5 C 69 % 981,3 hPa 0,0 l/m 0,0 km/h N-NO 16,5 C 22,5 C 0,0 km/h
17.09.2014 19:00 19,5 C 79 % 981,0 hPa 0,0 l/m 0,0 km/h N-NO 15,8 C 19,5 C 0,0 km/h
17.09.2014 20:00 18,4 C 81 % 981,4 hPa 0,0 l/m 0,0 km/h N-NO 15,1 C 18,4 C 0,0 km/h
17.09.2014 21:00 18,0 C 83 % 981,7 hPa 0,0 l/m 0,0 km/h O-SO 15,1 C 18,0 C 0,0 km/h
17.09.2014 22:00 17,6 C 84 % 982,0 hPa 0,0 l/m 0,0 km/h O-SO 14,9 C 17,6 C 0,0 km/h
17.09.2014 23:00 17,2 C 84 % 981,7 hPa 0,0 l/m 0,0 km/h O-SO 14,5 C 17,2 C 0,0 km/h
18.09.2014 00:00 16,6 C 85 % 981,5 hPa 0,0 l/m 0,0 km/h O-SO 14,1 C 16,6 C 0,0 km/h
18.09.2014 01:00 15,5 C 85 % 982,2 hPa 0,0 l/m 0,0 km/h O-NO 13,0 C 15,5 C 0,0 km/h
18.09.2014 02:00 14,9 C 85 % 982,0 hPa 0,0 l/m 0,0 km/h SO 12,4 C 14,9 C 0,0 km/h
18.09.2014 03:00 14,9 C 84 % 981,5 hPa 0,0 l/m 0,0 km/h NO 12,2 C 14,9 C 0,0 km/h
18.09.2014 04:00 15,3 C 84 % 981,6 hPa 0,0 l/m 0,0 km/h NO 12,6 C 15,3 C 0,0 km/h
18.09.2014 05:00 15,4 C 84 % 981,9 hPa 0,0 l/m 0,0 km/h N-NO 12,7 C 15,4 C 0,0 km/h
18.09.2014 06:00 15,4 C 84 % 981,8 hPa 0,0 l/m 0,0 km/h N-NO 12,7 C 15,4 C 0,0 km/h
18.09.2014 07:00 15,9 C 83 % 981,9 hPa 0,0 l/m 0,0 km/h W 13,0 C 15,9 C 0,0 km/h
18.09.2014 08:00 16,8 C 84 % 981,9 hPa 0,0 l/m 0,0 km/h SW 14,1 C 16,8 C 0,0 km/h
18.09.2014 09:00 19,9 C 84 % 982,5 hPa 0,0 l/m 0,0 km/h W 17,1 C 19,9 C 0,0 km/h
18.09.2014 10:00 20,5 C 82 % 982,8 hPa 0,0 l/m 0,0 km/h W-NW 17,3 C 20,5 C 0,0 km/h
18.09.2014 11:00 22,5 C 76 % 982,7 hPa 0,0 l/m 0,0 km/h W-NW 18,0 C 22,5 C 0,0 km/h
18.09.2014 12:00 23,8 C 71 % 982,6 hPa 0,0 l/m 0,0 km/h W-SW 18,2 C 23,8 C 0,0 km/h
18.09.2014 13:00 23,0 C 72 % 982,8 hPa 0,0 l/m 0,0 km/h W 17,7 C 23,0 C 0,0 km/h
18.09.2014 14:00 23,1 C 74 % 982,7 hPa 0,0 l/m 0,0 km/h O 18,2 C 23,1 C 0,0 km/h
18.09.2014 15:00 24,9 C 69 % 982,3 hPa 0,0 l/m 0,0 km/h NO 18,8 C 24,9 C 0,0 km/h
18.09.2014 16:00 24,8 C 70 % 982,0 hPa 0,0 l/m 0,0 km/h N-NO 18,9 C 24,8 C 0,0 km/h
18.09.2014 17:00 26,0 C 66 % 982,0 hPa 0,0 l/m 0,0 km/h N-NO 19,1 C 26,0 C 0,0 km/h
18.09.2014 18:00 25,5 C 70 % 982,3 hPa 0,0 l/m 0,0 km/h N-NO 19,6 C 25,5 C 0,0 km/h
18.09.2014 19:00 19,8 C 80 % 982,3 hPa 0,0 l/m 0,0 km/h N-NO 16,2 C 19,8 C 0,0 km/h
18.09.2014 20:00 17,8 C 83 % 982,7 hPa 0,0 l/m 0,0 km/h NO 14,9 C 17,8 C 0,0 km/h
18.09.2014 21:00 16,6 C 85 % 982,9 hPa 0,0 l/m 0,0 km/h NO 14,1 C 16,6 C 0,0 km/h
18.09.2014 22:00 15,8 C 85 % 983,2 hPa 0,0 l/m 0,0 km/h NO 13,3 C 15,8 C 0,0 km/h
18.09.2014 23:00 15,3 C 85 % 983,3 hPa 0,0 l/m 0,0 km/h N-NO 12,8 C 15,3 C 0,0 km/h
19.09.2014 00:00 15,2 C 84 % 983,1 hPa 0,0 l/m 0,0 km/h N-NO 12,5 C 15,2 C 0,0 km/h
19.09.2014 01:00 15,6 C 84 % 983,1 hPa 0,0 l/m 0,0 km/h SO 12,9 C 15,6 C 0,0 km/h
19.09.2014 02:00 16,4 C 83 % 984,8 hPa 0,8 l/m 0,0 km/h O 13,5 C 16,4 C 0,0 km/h
19.09.2014 03:00 16,1 C 83 % 983,3 hPa 0,6 l/m 0,0 km/h SO 13,2 C 16,1 C 0,0 km/h
19.09.2014 04:00 16,1 C 82 % 983,8 hPa 0,0 l/m 0,7 km/h O-SO 13,0 C 16,1 C 0,7 km/h
19.09.2014 05:00 15,8 C 80 % 983,3 hPa 0,0 l/m 0,0 km/h NO 12,4 C 15,8 C 0,0 km/h
19.09.2014 06:00 15,9 C 80 % 983,6 hPa 0,0 l/m 0,0 km/h SO 12,5 C 15,9 C 0,0 km/h
19.09.2014 07:00 15,9 C 79 % 984,2 hPa 0,0 l/m 0,0 km/h N-NO 12,3 C 15,9 C 0,0 km/h
19.09.2014 08:00 17,7 C 78 % 984,4 hPa 0,0 l/m 0,0 km/h SO 13,8 C 17,7 C 0,0 km/h
19.09.2014 09:00 21,3 C 84 % 984,2 hPa 0,0 l/m 0,0 km/h S-SW 18,5 C 21,3 C 0,0 km/h
19.09.2014 10:00 26,9 C 72 % 984,5 hPa 0,0 l/m 0,0 km/h W 21,4 C 26,9 C 0,0 km/h
19.09.2014 11:00 28,9 C 61 % 984,3 hPa 0,0 l/m 0,0 km/h W 20,6 C 28,9 C 0,0 km/h
19.09.2014 12:00 29,6 C 54 % 984,5 hPa 0,0 l/m 18,8 km/h W 19,3 C 28,7 C 10,4 km/h
19.09.2014 13:00 24,8 C 66 % 984,6 hPa 0,0 l/m 0,0 km/h W-SW 18,0 C 24,8 C 0,0 km/h
19.09.2014 14:00 25,5 C 68 % 984,3 hPa 0,0 l/m 0,0 km/h W-NW 19,1 C 25,5 C 0,0 km/h
19.09.2014 15:00 24,7 C 70 % 984,7 hPa 0,0 l/m 0,0 km/h W-SW 18,8 C 24,7 C 0,0 km/h
19.09.2014 16:00 22,9 C 66 % 984,6 hPa 0,0 l/m 0,6 km/h S-SO 16,2 C 22,9 C 0,4 km/h
19.09.2014 17:00 23,3 C 66 % 984,4 hPa 0,0 l/m 0,0 km/h N-NO 16,6 C 23,3 C 0,0 km/h
19.09.2014 18:00 21,1 C 73 % 984,6 hPa 0,0 l/m 0,0 km/h N-NO 16,1 C 21,1 C 0,0 km/h
19.09.2014 19:00 17,9 C 79 % 985,0 hPa 0,0 l/m 0,0 km/h SO 14,2 C 17,9 C 0,0 km/h
19.09.2014 20:00 17,1 C 84 % 985,5 hPa 0,0 l/m 0,0 km/h O-NO 14,4 C 17,1 C 0,0 km/h
19.09.2014 21:00 17,0 C 85 % 985,4 hPa 0,0 l/m 0,0 km/h O-SO 14,5 C 17,0 C 0,0 km/h
19.09.2014 22:00 16,4 C 85 % 985,5 hPa 0,0 l/m 0,0 km/h O-SO 13,9 C 16,4 C 0,0 km/h
19.09.2014 23:00 15,9 C 85 % 986,2 hPa 0,0 l/m 0,0 km/h O-SO 13,4 C 15,9 C 0,0 km/h
20.09.2014 00:00 15,8 C 85 % 985,7 hPa 0,0 l/m 0,0 km/h O-SO 13,3 C 15,8 C 0,0 km/h
20.09.2014 01:00 16,0 C 84 % 986,3 hPa 0,0 l/m 0,0 km/h SO 13,3 C 16,0 C 0,0 km/h
20.09.2014 02:00 15,9 C 84 % 986,8 hPa 0,2 l/m 0,0 km/h NO 13,2 C 15,9 C 0,0 km/h
20.09.2014 03:00 15,9 C 83 % 986,2 hPa 0,4 l/m 0,0 km/h O-SO 13,0 C 15,9 C 0,0 km/h
20.09.2014 04:00 15,9 C 83 % 985,7 hPa 0,2 l/m 0,0 km/h NO 13,0 C 15,9 C 0,0 km/h
20.09.2014 05:00 15,4 C 82 % 985,7 hPa 0,0 l/m 0,0 km/h SO 12,3 C 15,4 C 0,0 km/h
20.09.2014 06:00 15,4 C 81 % 985,7 hPa 0,0 l/m 0,0 km/h O-SO 12,2 C 15,4 C 0,0 km/h
20.09.2014 07:00 15,3 C 80 % 985,9 hPa 0,0 l/m 0,0 km/h SO 11,9 C 15,3 C 0,0 km/h
20.09.2014 08:00 17,2 C 78 % 986,2 hPa 0,0 l/m 0,0 km/h SO 13,3 C 17,2 C 0,0 km/h
20.09.2014 09:00 19,3 C 83 % 986,4 hPa 0,0 l/m 0,0 km/h O-SO 16,3 C 19,3 C 0,0 km/h
20.09.2014 10:00 20,4 C 84 % 986,5 hPa 0,0 l/m 0,0 km/h N-NO 17,6 C 20,4 C 0,0 km/h
20.09.2014 11:00 27,1 C 69 % 986,7 hPa 0,0 l/m 0,0 km/h W 20,9 C 27,1 C 0,0 km/h
20.09.2014 12:00 27,8 C 59 % 986,7 hPa 0,0 l/m 0,0 km/h S-SO 19,0 C 27,8 C 0,0 km/h
20.09.2014 13:00 28,0 C 57 % 986,6 hPa 0,0 l/m 0,0 km/h S 18,7 C 28,0 C 0,0 km/h
20.09.2014 14:00 25,9 C 61 % 986,2 hPa 0,0 l/m 0,0 km/h W 17,8 C 25,9 C 0,0 km/h
20.09.2014 15:00 26,1 C 59 % 985,8 hPa 0,0 l/m 0,0 km/h W 17,4 C 26,1 C 0,0 km/h
20.09.2014 16:00 31,1 C 50 % 985,7 hPa 0,0 l/m 18,8 km/h W 19,4 C 30,6 C 10,4 km/h
20.09.2014 17:00 24,3 C 65 % 985,4 hPa 0,0 l/m 0,0 km/h SO 17,3 C 24,3 C 0,0 km/h
20.09.2014 18:00 28,9 C 56 % 985,5 hPa 0,0 l/m 0,0 km/h SO 19,2 C 28,9 C 0,0 km/h
20.09.2014 19:00 19,7 C 76 % 985,8 hPa 0,0 l/m 0,0 km/h SO 15,3 C 19,7 C 0,0 km/h
20.09.2014 20:00 17,2 C 82 % 986,5 hPa 0,0 l/m 0,0 km/h O-SO 14,1 C 17,2 C 0,0 km/h
20.09.2014 21:00 16,2 C 84 % 986,5 hPa 0,0 l/m 0,0 km/h SO 13,5 C 16,2 C 0,0 km/h
20.09.2014 22:00 15,5 C 85 % 986,7 hPa 0,0 l/m 0,0 km/h SO 13,0 C 15,5 C 0,0 km/h
20.09.2014 23:00 15,1 C 85 % 987,0 hPa 0,0 l/m 1,8 km/h SO 12,6 C 15,1 C 1,8 km/h
21.09.2014 00:00 15,6 C 84 % 987,0 hPa 0,0 l/m 0,0 km/h SO 12,9 C 15,6 C 0,0 km/h
21.09.2014 01:00 15,5 C 84 % 987,1 hPa 0,0 l/m 0,0 km/h O-SO 12,8 C 15,5 C 0,0 km/h
21.09.2014 02:00 15,6 C 84 % 986,7 hPa 0,0 l/m 0,0 km/h SO 12,9 C 15,6 C 0,0 km/h
21.09.2014 03:00 15,0 C 83 % 986,4 hPa 0,0 l/m 0,0 km/h SO 12,1 C 15,0 C 0,0 km/h
21.09.2014 04:00 15,2 C 82 % 986,3 hPa 0,0 l/m 0,0 km/h SO 12,1 C 15,2 C 0,0 km/h
21.09.2014 05:00 14,9 C 82 % 986,2 hPa 0,0 l/m 0,0 km/h SO 11,9 C 14,9 C 0,0 km/h
21.09.2014 06:00 15,4 C 81 % 986,4 hPa 0,0 l/m 0,0 km/h W-SW 12,2 C 15,4 C 0,0 km/h
21.09.2014 07:00 15,9 C 81 % 986,5 hPa 0,4 l/m 0,0 km/h W 12,6 C 15,9 C 0,0 km/h
21.09.2014 08:00 17,2 C 84 % 986,5 hPa 0,0 l/m 0,0 km/h W 14,5 C 17,2 C 0,0 km/h
21.09.2014 09:00 18,1 C 86 % 986,8 hPa 0,0 l/m 0,0 km/h W 15,7 C 18,1 C 0,0 km/h
21.09.2014 10:00 18,9 C 84 % 986,9 hPa 0,0 l/m 3,2 km/h N-NO 16,1 C 18,9 C 1,8 km/h
21.09.2014 11:00 18,5 C 83 % 987,0 hPa 0,2 l/m 0,0 km/h N-NO 15,6 C 18,5 C 0,0 km/h
21.09.2014 12:00 19,3 C 84 % 986,5 hPa 0,2 l/m 0,0 km/h W 16,5 C 19,3 C 0,0 km/h
21.09.2014 13:00 19,8 C 81 % 986,6 hPa 0,0 l/m 0,0 km/h W-NW 16,4 C 19,8 C 0,0 km/h
21.09.2014 14:00 21,6 C 72 % 986,0 hPa 0,0 l/m 0,0 km/h W 16,3 C 21,6 C 0,0 km/h
21.09.2014 15:00 18,8 C 81 % 985,9 hPa 0,0 l/m 0,0 km/h S 15,5 C 18,8 C 0,0 km/h
21.09.2014 16:00 19,5 C 80 % 985,8 hPa 0,0 l/m 0,0 km/h W-NW 16,0 C 19,5 C 0,0 km/h
21.09.2014 17:00 16,8 C 85 % 986,1 hPa 3,7 l/m 7,8 km/h W 14,3 C 16,1 C 4,3 km/h
21.09.2014 18:00 16,3 C 85 % 986,6 hPa 0,4 l/m 0,0 km/h W-NW 13,8 C 16,3 C 0,0 km/h
21.09.2014 19:00 15,4 C 84 % 987,2 hPa 1,0 l/m 0,0 km/h N-NW 12,7 C 15,4 C 0,0 km/h
21.09.2014 20:00 14,1 C 84 % 988,3 hPa 0,6 l/m 0,0 km/h W-NW 11,4 C 14,1 C 0,0 km/h
21.09.2014 21:00 13,9 C 83 % 988,8 hPa 0,0 l/m 0,4 km/h W-NW 11,1 C 13,9 C 0,4 km/h
21.09.2014 22:00 13,9 C 82 % 989,5 hPa 0,0 l/m 0,0 km/h NW 10,9 C 13,9 C 0,0 km/h
21.09.2014 23:00 13,8 C 82 % 989,9 hPa 0,0 l/m 0,0 km/h N-NO 10,8 C 13,8 C 0,0 km/h
Min-Datum _ 15.09.14 16.09.14 17.09.14 - 15.09.14 - 15.09.14 15.09.14 15.09.14
_ Min-Zeit 03:53 16:53 19:53 - 00:53 - 03:53 03:53 00:53
Minimum _ 10,3 C 38 % 981,0 hPa - 0,0 km/h - 7,9 C 10,3 C 0,0 km/h
Max-Datum _ 16.09.14 15.09.14 21.09.14 21.09.14 19.09.14 - 19.09.14 16.09.14 19.09.14
_ Max-Zeit 16:53 01:53 23:53 17:53 12:53 - 10:53 16:53 12:53
Maximum _ 34,4 C 86 % 989,9 hPa 3,7 l/m 18,8 km/h
W
- 21,4 C 34,4 C 10,4 km/h
W
Durchschnitt _ 19,0 C 76 % 984,7 hPa #8,9 l/m 0,5 km/h N-NO 14,4 C 19,0 C 0,3 km/h
www.sexauwetter.de